Time;durP1;ratioP1;P1;durP2;ratioP2;P2;SDS_P1;SDS_P2;PMS_P1;PMS_P2;Temp;Humidity;BMP_temperature;BMP_pressure;BME280_temperature;BME280_humidity;BME280_pressure;Samples;Min_cycle;Max_cycle;Signal;HPM_P1;HPM_P2
2021/12/06 00:01:39;;;;;;;111.43;67.25;;;26.20;99.90;;;;;;5046513;28;20500;-70
2021/12/06 00:04:14;;;;;;;107.85;67.40;;;26.30;99.90;;;;;;5055423;28;20426;-71
2021/12/06 00:06:44;;;;;;;105.28;68.45;;;26.30;99.90;;;;;;5055100;28;20064;-70
2021/12/06 00:09:16;;;;;;;112.68;72.63;;;26.30;99.90;;;;;;5053434;28;20029;-68
2021/12/06 00:11:43;;;;;;;;;;;26.30;99.90;;;;;;5036888;28;20041;-69
2021/12/06 00:14:09;;;;;;;110.72;71.97;;;26.40;99.90;;;;;;5035871;28;19991;-69
2021/12/06 00:16:37;;;;;;;103.78;64.82;;;26.40;99.90;;;;;;5034430;28;20028;-68
2021/12/06 00:19:06;;;;;;;91.25;60.15;;;26.40;99.90;;;;;;5037395;28;20026;-67
2021/12/06 00:21:33;;;;;;;108.68;58.10;;;26.30;99.90;;;;;;5034073;28;20088;-69
2021/12/06 00:24:00;;;;;;;94.10;58.88;;;26.30;99.90;;;;;;5035125;28;20040;-69
2021/12/06 00:26:27;;;;;;;81.57;54.58;;;26.30;99.90;;;;;;5034821;28;20025;-68
2021/12/06 00:28:57;;;;;;;76.00;54.13;;;26.40;99.90;;;;;;5034722;28;20032;-70
2021/12/06 00:31:30;;;;;;;81.22;55.42;;;26.50;99.90;;;;;;5042746;28;20539;-69
2021/12/06 00:34:02;;;;;;;86.32;54.22;;;26.50;99.90;;;;;;5054151;28;20045;-69
2021/12/06 00:36:31;;;;;;;75.90;48.65;;;26.60;99.90;;;;;;5045551;28;20499;-69
2021/12/06 00:38:58;;;;;;;66.43;44.08;;;26.60;99.90;;;;;;5033681;28;20060;-69
2021/12/06 00:41:26;;;;;;;68.28;40.58;;;26.60;99.90;;;;;;5033178;28;20052;-69
2021/12/06 00:43:53;;;;;;;66.38;41.58;;;26.60;99.90;;;;;;5033331;28;20026;-68
2021/12/06 00:46:20;;;;;;;61.90;39.60;;;26.60;99.90;;;;;;5036100;28;20053;-69
2021/12/06 00:48:47;;;;;;;49.75;35.28;;;26.70;99.90;;;;;;5052735;28;20025;-68
2021/12/06 00:51:15;;;;;;;61.08;37.78;;;26.80;99.90;;;;;;5050926;28;20060;-67
2021/12/06 00:53:43;;;;;;;56.53;37.90;;;26.80;99.90;;;;;;5033213;28;20476;-69
2021/12/06 00:56:10;;;;;;;51.40;35.63;;;26.80;99.90;;;;;;5032741;28;20053;-69
2021/12/06 00:58:37;;;;;;;50.22;35.60;;;26.90;99.90;;;;;;5033157;28;20022;-70
2021/12/06 01:01:07;;;;;;;56.38;33.88;;;27.00;99.90;;;;;;5032807;28;20498;-68
2021/12/06 01:03:36;;;;;;;55.28;35.78;;;27.00;99.90;;;;;;5049448;28;20035;-68
2021/12/06 01:06:04;;;;;;;49.10;33.47;;;27.10;99.90;;;;;;5028496;28;20104;-68
2021/12/06 01:08:31;;;;;;;51.53;33.58;;;27.10;99.90;;;;;;5035064;28;20444;-68
2021/12/06 01:10:58;;;;;;;46.10;31.42;;;27.00;99.90;;;;;;5036925;28;20104;-68
2021/12/06 01:13:28;;;;;;;55.20;32.65;;;27.00;99.90;;;;;;5054789;28;20037;-68
2021/12/06 01:15:55;;;;;;;48.60;33.15;;;27.10;99.90;;;;;;5056517;28;20099;-67
2021/12/06 01:18:26;;;;;;;38.70;30.00;;;27.10;99.90;;;;;;5056525;28;20430;-68
2021/12/06 01:21:07;;;;;;;60.70;37.33;;;27.10;99.90;;;;;;5056713;28;20021;-68
2021/12/06 01:23:51;;;;;;;59.35;32.20;;;27.10;99.90;;;;;;5039623;28;20026;-70
2021/12/06 01:31:38;;;;;;;56.58;33.22;;;27.10;99.90;;;;;;5056136;28;20071;-69
2021/12/06 01:39:25;;;;;;;51.53;33.58;;;27.10;99.90;;;;;;5051027;28;20071;-69
2021/12/06 01:42:02;;;;;;;128.35;87.97;;;27.10;99.90;;;;;;5054502;28;20064;-68
2021/12/06 01:44:34;;;;;;;62.42;37.45;;;27.20;99.90;;;;;;5056020;28;20028;-69
2021/12/06 01:47:05;;;;;;;53.78;27.67;;;27.30;99.90;;;;;;5056022;28;20558;-68
2021/12/06 01:49:35;;;;;;;51.65;28.98;;;27.20;99.90;;;;;;5042730;28;20033;-68
2021/12/06 01:52:06;;;;;;;53.15;28.65;;;27.30;99.90;;;;;;5034884;28;20045;-68
2021/12/06 01:54:33;;;;;;;47.20;26.50;;;27.30;99.90;;;;;;5036999;28;20021;-68
2021/12/06 01:57:00;;;;;;;41.88;27.17;;;27.30;99.90;;;;;;5038308;28;20029;-68
2021/12/06 01:59:27;;;;;;;39.78;27.02;;;27.30;99.90;;;;;;5038526;28;20041;-69
2021/12/06 02:01:56;;;;;;;45.20;24.73;;;27.30;99.90;;;;;;5037122;28;20075;-69
2021/12/06 02:04:24;;;;;;;45.45;25.38;;;27.30;99.90;;;;;;5036759;28;20026;-69
2021/12/06 02:06:51;;;;;;;45.40;25.33;;;27.30;99.90;;;;;;5104952;22;20040;-69
2021/12/06 02:09:21;;;;;;;42.25;23.20;;;27.30;99.90;;;;;;5086876;28;20459;-69
2021/12/06 02:11:48;;;;;;;44.70;26.45;;;27.30;99.90;;;;;;5086641;28;20089;-69
2021/12/06 02:19:33;;;;;;;40.63;27.17;;;27.30;99.90;;;;;;5086316;28;20489;-68
2021/12/06 02:22:01;;;;;;;52.20;30.42;;;27.30;99.90;;;;;;5085960;28;20095;-68
2021/12/06 02:24:31;;;;;;;49.28;29.80;;;27.40;99.90;;;;;;5084363;28;20532;-68
2021/12/06 02:26:59;;;;;;;43.88;30.98;;;27.50;99.90;;;;;;5085293;28;20107;-68
2021/12/06 02:29:26;;;;;;;57.30;35.20;;;27.50;99.90;;;;;;5084998;28;20020;-68
2021/12/06 02:31:53;;;;;;;39.03;22.23;;;27.50;99.90;;;;;;5084950;28;20127;-68
2021/12/06 02:34:20;;;;;;;71.22;49.33;;;27.60;99.90;;;;;;5085311;28;20029;-68
2021/12/06 02:36:47;;;;;;;37.88;24.95;;;27.50;99.90;;;;;;5084228;28;20056;-69
2021/12/06 02:39:21;;;;;;;51.28;25.35;;;27.60;99.90;;;;;;5086307;28;20055;-68
2021/12/06 02:41:52;;;;;;;40.50;22.50;;;27.60;99.90;;;;;;5084153;28;20051;-68
2021/12/06 02:44:19;;;;;;;35.70;20.40;;;27.60;99.90;;;;;;5084807;28;20115;-69
2021/12/06 02:46:46;;;;;;;30.67;20.77;;;27.60;99.90;;;;;;5085782;28;20024;-69
2021/12/06 02:49:13;;;;;;;35.95;21.88;;;27.70;99.90;;;;;;5089026;28;20122;-68
2021/12/06 02:51:40;;;;;;;41.22;22.73;;;27.70;99.90;;;;;;5084513;28;20039;-71
2021/12/06 02:54:07;;;;;;;49.20;23.42;;;27.80;99.90;;;;;;5082019;28;20036;-69
2021/12/06 02:56:50;;;;;;;39.30;23.08;;;27.70;99.90;;;;;;5078040;28;20099;-68
2021/12/06 02:59:17;;;;;;;36.90;25.23;;;27.80;99.90;;;;;;5079115;28;20176;-69
2021/12/06 03:01:55;;;;;;;34.75;23.98;;;27.80;99.90;;;;;;5077858;28;20478;-68
2021/12/06 03:04:22;;;;;;;51.35;26.33;;;27.80;99.90;;;;;;5078406;28;20056;-68
2021/12/06 03:06:53;;;;;;;43.75;23.92;;;28.00;99.90;;;;;;5077536;28;20049;-70
2021/12/06 03:09:25;;;;;;;34.75;21.42;;;28.10;99.90;;;;;;5081725;28;20157;-70
2021/12/06 03:11:53;;;;;;;35.25;24.10;;;28.10;99.90;;;;;;5082182;28;20028;-69
2021/12/06 03:14:24;;;;;;;31.58;21.05;;;28.20;99.90;;;;;;5089455;28;20109;-69
2021/12/06 03:16:53;;;;;;;38.90;25.60;;;28.40;99.90;;;;;;5080143;28;20051;-69
2021/12/06 03:19:19;;;;;;;219.05;161.27;;;28.40;99.90;;;;;;5079310;28;20024;-71
2021/12/06 03:21:46;;;;;;;64.05;44.53;;;28.40;99.90;;;;;;5080813;28;20052;-69
2021/12/06 03:24:13;;;;;;;53.30;30.42;;;28.40;99.90;;;;;;5081117;28;20028;-69
2021/12/06 03:26:41;;;;;;;90.38;63.70;;;28.50;99.90;;;;;;5082710;28;20073;-69
2021/12/06 03:29:08;;;;;;;35.35;24.73;;;28.60;99.90;;;;;;5086600;28;20023;-69
2021/12/06 03:31:35;;;;;;;43.92;26.90;;;28.60;99.90;;;;;;5084518;28;20020;-68
2021/12/06 03:34:04;;;;;;;56.53;36.20;;;28.60;99.90;;;;;;5083706;28;20052;-69
2021/12/06 03:36:33;;;;;;;36.53;22.60;;;28.70;99.90;;;;;;5082503;28;20149;-68
2021/12/06 03:39:01;;;;;;;33.95;22.63;;;28.70;99.90;;;;;;5082197;28;20040;-69
2021/12/06 03:41:29;;;;;;;33.83;23.40;;;28.80;99.90;;;;;;5081042;28;20028;-70
2021/12/06 03:43:58;;;;;;;36.00;20.00;;;28.90;99.90;;;;;;5080576;28;20445;-71
2021/12/06 03:46:26;;;;;;;29.83;19.38;;;29.10;99.90;;;;;;5078998;28;20032;-67
2021/12/06 03:48:52;;;;;;;34.72;20.27;;;29.30;99.90;;;;;;5086659;28;20039;-69
2021/12/06 03:51:19;;;;;;;25.23;18.65;;;29.30;99.90;;;;;;5087063;28;20024;-67
2021/12/06 03:53:46;;;;;;;26.10;18.23;;;29.30;99.90;;;;;;5078042;28;20386;-65
2021/12/06 03:56:13;;;;;;;27.95;18.27;;;29.40;99.90;;;;;;5083689;28;20020;-69
2021/12/06 03:58:43;;;;;;;24.10;16.85;;;29.40;99.90;;;;;;5082638;28;20025;-66
2021/12/06 04:01:11;;;;;;;31.20;17.30;;;29.40;99.90;;;;;;5083546;28;20040;-69
2021/12/06 04:03:38;;;;;;;22.40;16.52;;;29.40;99.90;;;;;;5079971;28;20493;-68
2021/12/06 04:06:06;;;;;;;25.85;16.80;;;29.50;99.90;;;;;;5084412;28;20056;-65
2021/12/06 04:08:34;;;;;;;34.50;20.40;;;29.50;99.90;;;;;;5081702;28;20044;-67
2021/12/06 04:11:01;;;;;;;27.05;18.20;;;29.60;99.90;;;;;;5078075;28;20024;-72
2021/12/06 04:13:28;;;;;;;28.15;16.85;;;29.70;99.90;;;;;;5057632;28;20028;-68
2021/12/06 04:15:55;;;;;;;30.80;17.15;;;29.80;99.90;;;;;;5068888;28;20039;-75
2021/12/06 04:18:21;;;;;;;28.00;19.25;;;29.90;99.90;;;;;;5083310;28;20024;-69
2021/12/06 04:20:50;;;;;;;32.35;18.63;;;29.90;99.90;;;;;;5094576;28;20031;-66
2021/12/06 04:23:17;;;;;;;28.35;18.55;;;29.80;99.90;;;;;;5084912;28;20032;-68
2021/12/06 04:25:44;;;;;;;26.73;18.08;;;29.90;99.90;;;;;;5083510;28;20028;-66
2021/12/06 04:28:14;;;;;;;39.92;18.30;;;29.80;99.90;;;;;;5076314;28;20031;-66
2021/12/06 04:30:42;;;;;;;27.50;18.75;;;29.90;99.90;;;;;;5084335;28;20032;-67
2021/12/06 04:33:10;;;;;;;38.05;17.90;;;30.00;99.90;;;;;;5081703;28;20036;-68
2021/12/06 04:35:38;;;;;;;24.30;16.45;;;30.00;99.90;;;;;;5082308;28;20047;-69
2021/12/06 04:38:06;;;;;;;26.98;16.95;;;30.00;99.90;;;;;;5083531;28;20069;-68
2021/12/06 04:40:33;;;;;;;35.50;23.00;;;30.10;99.90;;;;;;5082497;28;20501;-71
2021/12/06 04:43:00;;;;;;;31.08;21.80;;;30.20;99.90;;;;;;5083988;28;20379;-69
2021/12/06 04:45:27;;;;;;;33.10;21.23;;;30.20;99.90;;;;;;5086911;28;20402;-70
2021/12/06 04:47:54;;;;;;;30.70;19.80;;;30.20;99.90;;;;;;5088622;28;20033;-70
2021/12/06 04:50:24;;;;;;;31.02;20.90;;;30.20;99.90;;;;;;5085055;28;20506;-67
2021/12/06 04:52:56;;;;;;;38.30;21.70;;;30.10;99.90;;;;;;5087306;28;20035;-69
2021/12/06 04:55:40;;;;;;;39.95;20.33;;;30.10;99.90;;;;;;5085675;28;20028;-67
2021/12/06 04:58:09;;;;;;;30.05;17.38;;;30.20;99.90;;;;;;5084319;28;20036;-66
2021/12/06 05:00:40;;;;;;;32.75;18.52;;;30.30;99.90;;;;;;5084231;28;20149;-68
2021/12/06 05:03:08;;;;;;;31.40;18.50;;;30.40;99.90;;;;;;5090696;28;20151;-67
2021/12/06 05:05:48;;;;;;;27.88;17.98;;;30.50;99.90;;;;;;5088625;28;20055;-68
2021/12/06 05:08:26;;;;;;;23.67;16.83;;;30.60;99.90;;;;;;5089765;28;20043;-69
2021/12/06 05:10:54;;;;;;;22.10;16.23;;;30.70;98.60;;;;;;5085884;28;20078;-69
2021/12/06 05:13:22;;;;;;;18.65;16.60;;;30.80;97.00;;;;;;5085475;28;20020;-69
2021/12/06 05:15:49;;;;;;;23.67;16.02;;;30.80;95.90;;;;;;5084877;28;20032;-69
2021/12/06 05:18:16;;;;;;;23.30;17.90;;;30.80;96.10;;;;;;5083149;28;20024;-67
2021/12/06 05:20:43;;;;;;;37.10;18.92;;;30.80;96.50;;;;;;5077316;28;20025;-68
2021/12/06 05:23:11;;;;;;;54.20;39.42;;;30.90;97.50;;;;;;5089090;28;20024;-70
2021/12/06 05:25:38;;;;;;;42.85;28.15;;;31.00;96.70;;;;;;5079811;28;20364;-68
2021/12/06 05:28:06;;;;;;;42.05;30.02;;;31.00;97.30;;;;;;5088129;28;20538;-70
2021/12/06 05:30:38;;;;;;;73.85;51.20;;;31.00;98.60;;;;;;5092305;28;20036;-68
2021/12/06 05:33:07;;;;;;;24.90;15.93;;;31.00;97.70;;;;;;5066413;28;20224;-69
2021/12/06 05:35:34;;;;;;;21.13;14.38;;;31.10;95.50;;;;;;5081948;28;20032;-72
2021/12/06 05:38:04;;;;;;;20.65;11.63;;;31.00;96.10;;;;;;5092896;28;20031;-72
2021/12/06 05:40:33;;;;;;;15.02;10.88;;;31.00;95.10;;;;;;5081628;28;20111;-70
2021/12/06 05:43:02;;;;;;;20.02;12.55;;;30.90;93.50;;;;;;5085406;28;20490;-71
2021/12/06 05:45:31;;;;;;;19.42;12.73;;;30.70;93.70;;;;;;5081679;28;20028;-70
2021/12/06 05:47:58;;;;;;;17.95;11.15;;;30.70;94.50;;;;;;5084900;28;20109;-69
2021/12/06 05:50:25;;;;;;;21.70;10.55;;;30.80;93.50;;;;;;5080387;28;20483;-68
2021/12/06 05:52:55;;;;;;;12.40;9.57;;;30.80;92.60;;;;;;5079738;28;20044;-66
2021/12/06 05:55:24;;;;;;;13.18;10.20;;;31.00;92.80;;;;;;5083612;28;20111;-68
2021/12/06 05:57:52;;;;;;;22.17;9.68;;;31.10;91.00;;;;;;5076446;28;20044;-68
2021/12/06 06:00:21;;;;;;;18.58;9.43;;;31.00;92.10;;;;;;5071738;28;20108;-67
2021/12/06 06:02:48;;;;;;;15.55;9.70;;;31.00;90.90;;;;;;5076378;28;20060;-67
2021/12/06 06:05:18;;;;;;;22.63;10.48;;;31.10;90.60;;;;;;5075819;28;20094;-69
2021/12/06 06:07:45;;;;;;;35.78;11.57;;;31.30;91.70;;;;;;5056724;28;20037;-66
2021/12/06 06:10:12;;;;;;;24.75;9.32;;;31.30;90.80;;;;;;5075339;28;20024;-66
2021/12/06 06:12:39;;;;;;;13.88;8.45;;;31.30;90.50;;;;;;5075322;28;20034;-68
2021/12/06 06:15:06;;;;;;;10.80;8.07;;;31.20;88.30;;;;;;5076256;28;20425;-69
2021/12/06 06:17:40;;;;;;;19.73;9.02;;;31.20;88.00;;;;;;5075837;28;20036;-70
2021/12/06 06:20:12;;;;;;;13.48;9.57;;;31.20;89.40;;;;;;5075872;28;20031;-69
2021/12/06 06:22:41;;;;;;;9.95;8.30;;;31.20;87.50;;;;;;5075816;28;20033;-70
2021/12/06 06:25:08;;;;;;;18.42;11.13;;;31.30;88.80;;;;;;5075789;28;20024;-71
2021/12/06 06:27:35;;;;;;;27.27;15.70;;;31.20;87.80;;;;;;5080701;28;20028;-70
2021/12/06 06:30:02;;;;;;;23.58;16.02;;;31.30;88.50;;;;;;5075678;28;20506;-74
2021/12/06 06:32:29;;;;;;;15.75;10.90;;;31.20;88.10;;;;;;5075532;28;20035;-69
2021/12/06 06:34:56;;;;;;;18.05;12.32;;;31.20;87.00;;;;;;5075443;28;20473;-68
2021/12/06 06:37:22;;;;;;;14.63;8.15;;;31.10;90.00;;;;;;5081469;28;20117;-68
2021/12/06 06:39:49;;;;;;;13.13;8.63;;;31.20;88.10;;;;;;5087987;28;20432;-69
2021/12/06 06:42:17;;;;;;;14.35;9.35;;;31.30;88.00;;;;;;5095374;28;20016;-68
2021/12/06 06:44:43;;;;;;;12.50;8.20;;;31.40;87.10;;;;;;5081548;28;20028;-67
2021/12/06 06:47:10;;;;;;;11.93;8.20;;;31.50;86.40;;;;;;5084260;28;20090;-67
2021/12/06 06:49:37;;;;;;;26.85;9.25;;;31.40;86.20;;;;;;5088354;28;20376;-68
2021/12/06 06:52:04;;;;;;;21.50;9.50;;;31.40;86.60;;;;;;5080785;28;20032;-68
2021/12/06 06:54:31;;;;;;;18.00;10.27;;;31.40;87.00;;;;;;5084294;28;20066;-69
2021/12/06 06:56:57;;;;;;;14.85;9.40;;;31.50;86.50;;;;;;5085063;28;20077;-68
2021/12/06 06:59:24;;;;;;;15.70;9.77;;;31.50;86.70;;;;;;5075555;28;20032;-71
2021/12/06 07:01:52;;;;;;;14.15;9.00;;;31.60;87.00;;;;;;5078566;28;20035;-67
2021/12/06 07:04:19;;;;;;;11.45;8.65;;;31.60;83.00;;;;;;5079410;28;20032;-67
2021/12/06 07:06:46;;;;;;;13.13;7.07;;;31.50;83.60;;;;;;5081648;28;20122;-68
2021/12/06 07:09:12;;;;;;;14.75;8.00;;;31.50;82.60;;;;;;5079687;28;20071;-67
2021/12/06 07:11:44;;;;;;;115.90;85.38;;;31.50;81.20;;;;;;5079621;28;20540;-66
2021/12/06 07:14:11;;;;;;;253.97;182.60;;;31.50;82.90;;;;;;5083938;28;20490;-68
2021/12/06 07:16:37;;;;;;;16.30;11.27;;;31.50;84.80;;;;;;5076792;28;20052;-67
2021/12/06 07:19:05;;;;;;;30.83;19.55;;;31.50;84.20;;;;;;5081866;28;20032;-67
2021/12/06 07:21:31;;;;;;;15.32;8.82;;;31.50;82.80;;;;;;5087198;28;20038;-68
2021/12/06 07:23:58;;;;;;;34.50;9.00;;;31.70;79.00;;;;;;5091045;28;20046;-69
2021/12/06 07:26:25;;;;;;;24.38;9.75;;;31.80;79.50;;;;;;5086907;28;20025;-67
2021/12/06 07:28:55;;;;;;;48.03;10.10;;;31.80;81.80;;;;;;5076866;28;20041;-68
2021/12/06 07:31:23;;;;;;;36.25;11.63;;;31.80;82.40;;;;;;5077595;28;20046;-68
2021/12/06 07:33:51;;;;;;;67.07;12.77;;;31.80;83.70;;;;;;5079581;28;20035;-68
2021/12/06 07:36:20;;;;;;;61.28;17.20;;;31.80;84.30;;;;;;5081388;28;20024;-68
2021/12/06 07:38:48;;;;;;;15.38;10.35;;;31.80;84.30;;;;;;5080434;28;20090;-66
2021/12/06 07:41:17;;;;;;;25.00;10.70;;;31.80;84.10;;;;;;5078183;28;20036;-68
2021/12/06 07:43:44;;;;;;;16.80;10.07;;;31.70;85.20;;;;;;5081750;28;20024;-69
2021/12/06 07:46:11;;;;;;;19.40;9.93;;;31.60;84.80;;;;;;5080680;28;20082;-69
2021/12/06 07:48:39;;;;;;;22.77;14.10;;;31.50;85.60;;;;;;5085523;28;20029;-67
2021/12/06 07:51:07;;;;;;;22.77;9.38;;;31.50;85.60;;;;;;5080353;28;20073;-67
2021/12/06 07:53:37;;;;;;;21.05;9.75;;;31.40;84.70;;;;;;5077762;28;20090;-68
2021/12/06 07:56:04;;;;;;;44.85;10.77;;;31.30;87.40;;;;;;5080517;28;20029;-68
2021/12/06 07:58:31;;;;;;;32.95;9.90;;;31.40;88.80;;;;;;5078269;28;20082;-66
2021/12/06 08:00:59;;;;;;;30.55;10.00;;;31.40;89.70;;;;;;5083334;28;20016;-68
2021/12/06 08:03:27;;;;;;;54.58;13.50;;;31.40;90.20;;;;;;5080589;28;20028;-67
2021/12/06 08:05:54;;;;;;;13.95;8.75;;;31.40;91.30;;;;;;5082157;28;20444;-66
2021/12/06 08:08:27;;;;;;;138.02;20.67;;;31.50;88.60;;;;;;5084354;28;20030;-67
2021/12/06 08:10:58;;;;;;;19.15;9.80;;;31.40;90.00;;;;;;5082522;28;20077;-66
2021/12/06 08:13:28;;;;;;;18.05;12.52;;;31.30;90.80;;;;;;5080678;28;20035;-67
2021/12/06 08:15:57;;;;;;;15.48;10.75;;;31.40;91.50;;;;;;5086583;28;20024;-67
2021/12/06 08:18:24;;;;;;;24.33;12.80;;;31.40;88.60;;;;;;5080042;28;20028;-65
2021/12/06 08:20:51;;;;;;;15.75;10.43;;;31.40;90.50;;;;;;5079974;28;20016;-67
2021/12/06 08:23:18;;;;;;;20.38;11.13;;;31.40;90.30;;;;;;5080202;28;20099;-68
2021/12/06 08:25:48;;;;;;;21.42;11.85;;;31.40;90.40;;;;;;5077445;28;20033;-67
2021/12/06 08:28:16;;;;;;;16.17;10.02;;;31.50;91.30;;;;;;5084576;28;20176;-67
2021/12/06 08:30:43;;;;;;;19.15;12.25;;;31.50;89.90;;;;;;5082365;28;20033;-66
2021/12/06 08:33:10;;;;;;;26.98;14.40;;;31.40;91.20;;;;;;5083668;28;20380;-68
2021/12/06 08:35:41;;;;;;;40.00;14.15;;;31.50;91.40;;;;;;5083965;28;20050;-67
2021/12/06 08:38:10;;;;;;;77.03;17.03;;;31.50;91.80;;;;;;5080098;28;20028;-65
2021/12/06 08:40:39;;;;;;;38.13;25.30;;;31.60;92.10;;;;;;5082025;28;20024;-66
2021/12/06 08:43:05;;;;;;;62.83;41.42;;;31.50;91.10;;;;;;5082615;28;20016;-68
2021/12/06 08:45:33;;;;;;;23.85;12.90;;;31.50;91.40;;;;;;5082102;28;20036;-67
2021/12/06 08:48:00;;;;;;;24.20;16.02;;;31.50;91.30;;;;;;5082236;28;20028;-67
2021/12/06 08:50:29;;;;;;;81.03;47.42;;;31.50;90.90;;;;;;5082562;28;20025;-67
2021/12/06 08:52:56;;;;;;;108.32;79.13;;;31.50;91.20;;;;;;5082453;28;20024;-65
2021/12/06 08:55:25;;;;;;;32.78;13.15;;;31.50;91.00;;;;;;5086214;28;20027;-68
2021/12/06 08:57:53;;;;;;;25.55;11.20;;;31.50;91.40;;;;;;5085302;28;20092;-67
2021/12/06 09:00:25;;;;;;;19.80;11.07;;;31.60;91.10;;;;;;5088070;28;20031;-66
2021/12/06 09:02:52;;;;;;;26.67;11.97;;;31.50;90.90;;;;;;5083363;28;20024;-67
2021/12/06 09:05:19;;;;;;;25.67;11.90;;;31.50;91.00;;;;;;5082016;28;20048;-66
2021/12/06 09:07:48;;;;;;;18.58;12.20;;;31.50;90.80;;;;;;5080159;28;20039;-65
2021/12/06 09:10:15;;;;;;;16.25;11.07;;;31.40;90.60;;;;;;5079983;28;20035;-66
2021/12/06 09:12:44;;;;;;;25.20;15.70;;;31.40;91.30;;;;;;5078324;28;20031;-67
2021/12/06 09:15:20;;;;;;;21.92;12.98;;;31.30;91.30;;;;;;5084220;28;20064;-66
2021/12/06 09:20:52;;;;;;;29.23;18.35;;;31.00;91.80;;;;;;5078138;28;20053;-66
2021/12/06 09:23:20;;;;;;;32.60;20.80;;;31.00;92.50;;;;;;5082711;28;20364;-69
2021/12/06 09:25:47;;;;;;;31.13;16.58;;;31.00;93.20;;;;;;5079021;28;20516;-66
2021/12/06 09:28:15;;;;;;;23.88;15.38;;;30.90;93.50;;;;;;5082464;28;20035;-66
2021/12/06 09:30:43;;;;;;;26.35;14.52;;;30.80;93.50;;;;;;5084526;28;20020;-66
2021/12/06 09:33:13;;;;;;;37.30;14.80;;;30.90;93.70;;;;;;5086123;28;20028;-65
2021/12/06 09:35:44;;;;;;;22.70;13.25;;;30.70;93.30;;;;;;5078756;28;20055;-66
2021/12/06 09:38:15;;;;;;;26.50;15.73;;;30.70;93.40;;;;;;5075668;28;20056;-64
2021/12/06 09:40:45;;;;;;;18.13;13.60;;;30.50;94.20;;;;;;5076027;28;20097;-65
2021/12/06 09:43:14;;;;;;;30.58;17.95;;;30.50;93.90;;;;;;5075283;28;20039;-65
2021/12/06 09:45:42;;;;;;;40.50;18.55;;;30.50;94.60;;;;;;5075517;28;20048;-66
2021/12/06 09:48:10;;;;;;;33.92;18.90;;;30.50;94.80;;;;;;5075351;28;20033;-66
2021/12/06 09:50:43;;;;;;;28.15;15.50;;;30.50;94.20;;;;;;5075519;28;20104;-65
2021/12/06 09:53:13;;;;;;;30.63;12.95;;;30.40;94.40;;;;;;5075693;28;20391;-64
2021/12/06 09:55:42;;;;;;;46.05;14.88;;;30.40;94.20;;;;;;5094433;28;20020;-65
2021/12/06 09:58:09;;;;;;;23.90;13.75;;;30.30;93.70;;;;;;5089474;28;20033;-65
2021/12/06 10:00:42;;;;;;;23.80;12.75;;;30.40;93.10;;;;;;5075130;28;20123;-66
2021/12/06 10:03:11;;;;;;;81.43;18.58;;;30.30;94.20;;;;;;5075076;28;20024;-63
2021/12/06 10:05:38;;;;;;;23.85;15.38;;;30.20;94.90;;;;;;5075412;28;20114;-66
2021/12/06 10:08:05;;;;;;;30.35;15.15;;;30.30;94.70;;;;;;5075303;28;20526;-65
2021/12/06 10:10:33;;;;;;;23.48;14.73;;;30.30;94.30;;;;;;5074886;28;20497;-66
2021/12/06 10:13:00;;;;;;;54.60;16.45;;;30.20;94.10;;;;;;5075496;28;20078;-65
2021/12/06 10:15:29;;;;;;;46.35;23.05;;;30.10;93.90;;;;;;5075455;28;20024;-66
2021/12/06 10:17:59;;;;;;;85.80;57.75;;;30.10;95.20;;;;;;5099440;22;20066;-66
2021/12/06 10:20:28;;;;;;;56.67;29.33;;;30.20;95.50;;;;;;5073421;28;20058;-64
2021/12/06 10:22:55;;;;;;;39.95;23.73;;;30.20;95.60;;;;;;5069180;28;20464;-66
2021/12/06 10:25:34;;;;;;;41.15;21.70;;;30.20;94.70;;;;;;5055146;28;20064;-66
2021/12/06 10:28:04;;;;;;;40.08;24.08;;;30.10;95.10;;;;;;5073035;28;20028;-67
2021/12/06 10:30:34;;;;;;;125.47;65.25;;;30.20;95.90;;;;;;5074665;28;20020;-65
2021/12/06 10:33:07;;;;;;;44.35;30.45;;;30.10;95.70;;;;;;5075336;28;20024;-67
2021/12/06 10:35:39;;;;;;;52.13;30.27;;;30.10;96.90;;;;;;5075004;28;20017;-67
2021/12/06 10:38:06;;;;;;;80.33;40.07;;;30.10;97.80;;;;;;5074516;28;20032;-68
2021/12/06 10:40:37;;;;;;;49.00;32.53;;;30.10;97.80;;;;;;5072645;28;20284;-66
2021/12/06 10:43:07;;;;;;;67.18;43.30;;;30.00;97.90;;;;;;5071496;28;20019;-66
2021/12/06 10:45:38;;;;;;;96.95;60.92;;;30.10;97.80;;;;;;5074107;28;20028;-67
2021/12/06 10:48:20;;;;;;;88.75;44.42;;;30.10;97.00;;;;;;5071633;28;20147;-65
2021/12/06 10:50:57;;;;;;;85.05;55.35;;;30.00;98.70;;;;;;5071810;28;20100;-66
2021/12/06 10:53:28;;;;;;;62.38;37.97;;;30.00;98.70;;;;;;5071214;28;20108;-66
2021/12/06 10:55:57;;;;;;;75.60;44.08;;;29.90;99.00;;;;;;5073938;28;20029;-67
2021/12/06 10:58:28;;;;;;;67.93;42.22;;;29.90;99.90;;;;;;5070831;28;20035;-66
2021/12/06 11:01:09;;;;;;;62.90;33.13;;;29.90;99.90;;;;;;5073469;28;20027;-67
2021/12/06 11:03:42;;;;;;;66.57;35.72;;;29.90;99.90;;;;;;5070130;28;20029;-67
2021/12/06 11:06:13;;;;;;;86.13;40.50;;;29.90;99.90;;;;;;5073977;28;20036;-72
2021/12/06 11:08:41;;;;;;;82.07;40.20;;;29.90;99.90;;;;;;5074063;28;20032;-67
2021/12/06 11:11:12;;;;;;;222.13;46.72;;;29.90;99.90;;;;;;5076873;28;20082;-67
2021/12/06 11:13:41;;;;;;;205.63;100.75;;;29.90;99.90;;;;;;5073629;28;20024;-68
2021/12/06 11:16:15;;;;;;;108.32;67.70;;;29.80;99.90;;;;;;5073847;28;20039;-67
2021/12/06 11:18:49;;;;;;;549.45;326.65;;;29.70;99.90;;;;;;5068007;28;20071;-67
2021/12/06 11:21:22;;;;;;;95.93;55.60;;;29.70;99.90;;;;;;5073125;28;20033;-66
2021/12/06 11:23:56;;;;;;;251.98;186.45;;;29.70;99.90;;;;;;5071642;28;20102;-67
2021/12/06 11:26:23;;;;;;;140.45;90.63;;;29.60;99.90;;;;;;5071214;28;20020;-67
2021/12/06 11:28:50;;;;;;;89.75;55.05;;;29.60;99.90;;;;;;5069989;28;20056;-66
2021/12/06 11:31:18;;;;;;;65.20;38.25;;;29.60;99.90;;;;;;5069378;28;20031;-67
2021/12/06 11:33:58;;;;;;;75.75;43.70;;;29.60;99.90;;;;;;5070874;28;20028;-68
2021/12/06 11:36:30;;;;;;;65.70;33.38;;;29.60;99.90;;;;;;5073367;28;20029;-68
2021/12/06 11:39:06;;;;;;;54.67;34.47;;;29.60;99.90;;;;;;5070371;28;20028;-68
2021/12/06 11:41:33;;;;;;;55.92;33.42;;;29.40;99.90;;;;;;5072638;28;20029;-69
2021/12/06 11:44:14;;;;;;;46.85;30.90;;;29.40;99.90;;;;;;5070543;28;20617;-68
2021/12/06 11:46:41;;;;;;;52.42;31.48;;;29.50;99.90;;;;;;5072678;28;20054;-66
2021/12/06 11:49:26;;;;;;;45.53;26.35;;;29.40;99.90;;;;;;5073043;28;20025;-67
2021/12/06 11:51:53;;;;;;;48.25;28.40;;;29.30;99.90;;;;;;5075554;28;20020;-66
2021/12/06 11:54:21;;;;;;;45.17;28.63;;;29.30;99.90;;;;;;5074877;28;20037;-68
2021/12/06 11:56:51;;;;;;;45.40;24.90;;;29.30;99.90;;;;;;5078527;28;20028;-69
2021/12/06 11:59:18;;;;;;;42.78;26.17;;;29.30;99.90;;;;;;5093794;28;20425;-68
2021/12/06 12:01:55;;;;;;;60.58;38.47;;;29.20;99.90;;;;;;5082149;28;20033;-67
2021/12/06 12:04:29;;;;;;;51.65;29.48;;;29.10;99.90;;;;;;5072891;28;20119;-67
2021/12/06 12:07:00;;;;;;;62.20;36.45;;;29.00;99.90;;;;;;5068616;28;20400;-68
2021/12/06 12:09:29;;;;;;;39.88;24.30;;;29.00;99.90;;;;;;5071574;28;20059;-67
2021/12/06 12:12:02;;;;;;;36.47;22.00;;;29.00;99.90;;;;;;5073244;28;20107;-66
2021/12/06 12:14:50;;;;;;;49.60;27.92;;;28.90;99.90;;;;;;5073604;28;20025;-66
2021/12/06 12:17:25;;;;;;;32.70;20.75;;;29.00;99.90;;;;;;5073102;28;20039;-67
2021/12/06 12:19:54;;;;;;;38.47;20.23;;;28.90;99.90;;;;;;5073474;28;20070;-68
2021/12/06 12:22:22;;;;;;;48.67;27.23;;;28.90;99.90;;;;;;5073213;28;20032;-68
2021/12/06 12:24:53;;;;;;;31.85;19.98;;;28.90;99.90;;;;;;5073070;28;20032;-68
2021/12/06 12:29:50;;;;;;;30.27;17.77;;;28.80;99.90;;;;;;5070282;28;20276;-67
2021/12/06 12:32:17;;;;;;;28.02;16.00;;;28.90;99.90;;;;;;5065127;28;20049;-68
2021/12/06 12:34:48;;;;;;;34.50;13.65;;;28.80;99.90;;;;;;5053337;28;20032;-65
2021/12/06 12:37:17;;;;;;;20.60;13.93;;;28.80;99.90;;;;;;5064894;28;20043;-71
2021/12/06 12:40:01;;;;;;;24.30;13.93;;;28.80;99.90;;;;;;5073301;28;20017;-67
2021/12/06 12:42:28;;;;;;;19.50;13.68;;;28.70;99.90;;;;;;5073107;28;20021;-67
2021/12/06 12:44:56;;;;;;;18.42;12.40;;;28.70;99.90;;;;;;5073365;28;20020;-70
2021/12/06 12:47:26;;;;;;;23.00;13.45;;;28.70;99.90;;;;;;5073171;28;20107;-69
2021/12/06 12:50:02;;;;;;;21.35;13.15;;;28.70;99.90;;;;;;5071068;28;20393;-68
2021/12/06 12:52:36;;;;;;;23.83;13.48;;;28.60;99.90;;;;;;5070185;28;20360;-71
2021/12/06 12:55:18;;;;;;;22.23;15.15;;;28.60;99.90;;;;;;5072600;28;20025;-70
2021/12/06 12:57:44;;;;;;;26.55;14.13;;;28.60;99.90;;;;;;5072404;28;20039;-69
2021/12/06 13:00:19;;;;;;;26.10;13.98;;;28.60;99.90;;;;;;5070137;28;20050;-70